Time;durP1;ratioP1;P1;durP2;ratioP2;P2;SDS_P1;SDS_P2;PMS_P1;PMS_P2;Temp;Humidity;BMP_temperature;BMP_pressure;BME280_temperature;BME280_humidity;BME280_pressure;Samples;Min_cycle;Max_cycle;Signal;HPM_P1;HPM_P2
2022/03/01 00:02:19;;;;;;;44.53;23.47;;;;;;;;;;772529;180;627800;-67
2022/03/01 00:04:45;;;;;;;43.03;22.02;;;;;;;;;;762893;184;627507;-68
2022/03/01 00:07:11;;;;;;;40.40;23.50;;;;;;;;;;751604;185;623095;-69
2022/03/01 00:09:37;;;;;;;50.73;25.70;;;;;;;;;;751018;184;623266;-68
2022/03/01 00:12:03;;;;;;;52.83;27.10;;;;;;;;;;752952;184;626927;-67
2022/03/01 00:14:29;;;;;;;72.53;37.27;;;;;;;;;;754706;184;625077;-68
2022/03/01 00:16:54;;;;;;;48.90;23.40;;;;;;;;;;761577;183;626958;-68
2022/03/01 00:19:20;;;;;;;48.00;23.13;;;;;;;;;;760292;183;637292;-68
2022/03/01 00:21:46;;;;;;;46.87;24.57;;;;;;;;;;750333;184;634889;-68
2022/03/01 00:24:12;;;;;;;57.03;29.77;;;;;;;;;;752205;184;628857;-67
2022/03/01 00:26:38;;;;;;;54.43;29.70;;;;;;;;;;752239;183;629894;-68
2022/03/01 00:29:04;;;;;;;51.57;28.20;;;;;;;;;;758976;183;631138;-68
2022/03/01 00:31:29;;;;;;;47.93;27.00;;;;;;;;;;748071;184;622263;-68
2022/03/01 00:33:55;;;;;;;54.00;30.03;;;;;;;;;;755373;182;628720;-68
2022/03/01 00:36:22;;;;;;;65.33;31.00;;;;;;;;;;755727;184;622565;-68
2022/03/01 00:38:47;;;;;;;59.80;30.53;;;;;;;;;;753862;183;637735;-69
2022/03/01 00:41:13;;;;;;;50.67;28.37;;;;;;;;;;757306;184;626883;-68
2022/03/01 00:43:39;;;;;;;50.20;26.07;;;;;;;;;;753529;184;618324;-68
2022/03/01 00:46:05;;;;;;;50.13;28.70;;;;;;;;;;764516;184;631092;-68
2022/03/01 00:48:31;;;;;;;50.90;26.77;;;;;;;;;;758211;184;624115;-68
2022/03/01 00:50:57;;;;;;;46.03;27.60;;;;;;;;;;756544;184;626787;-68
2022/03/01 00:53:23;;;;;;;52.20;28.30;;;;;;;;;;763140;184;616343;-68
2022/03/01 00:55:48;;;;;;;52.23;28.10;;;;;;;;;;757758;184;617710;-68
2022/03/01 00:58:14;;;;;;;61.03;31.93;;;;;;;;;;760425;184;633901;-68
2022/03/01 01:00:40;;;;;;;71.07;31.83;;;;;;;;;;759368;184;634806;-68
2022/03/01 01:03:06;;;;;;;49.03;27.43;;;;;;;;;;760539;184;626294;-68
2022/03/01 01:05:33;;;;;;;69.67;31.70;;;;;;;;;;763713;183;703156;-68
2022/03/01 01:07:58;;;;;;;53.77;27.80;;;;;;;;;;757033;184;623285;-67
2022/03/01 01:10:24;;;;;;;53.20;29.83;;;;;;;;;;756368;184;651503;-69
2022/03/01 01:12:50;;;;;;;50.70;29.60;;;;;;;;;;756810;185;629816;-68
2022/03/01 01:15:16;;;;;;;63.83;30.87;;;;;;;;;;754425;184;632780;-68
2022/03/01 01:17:42;;;;;;;60.60;29.97;;;;;;;;;;751641;184;630008;-68
2022/03/01 01:20:08;;;;;;;56.07;31.53;;;;;;;;;;751658;187;642321;-69
2022/03/01 01:22:40;;;;;;;65.13;30.37;;;;;;;;;;763570;183;627558;-68
2022/03/01 01:25:06;;;;;;;63.83;30.60;;;;;;;;;;751337;184;642061;-68
2022/03/01 01:30:25;;;;;;;58.27;31.77;;;;;;;;;;752359;184;617026;-68
2022/03/01 01:32:50;;;;;;;68.70;32.80;;;;;;;;;;754126;184;626976;-69
2022/03/01 01:35:16;;;;;;;76.97;32.23;;;;;;;;;;771748;179;627603;-68
2022/03/01 01:37:42;;;;;;;62.33;34.93;;;;;;;;;;749993;183;619426;-69
2022/03/01 01:40:09;;;;;;;60.73;32.90;;;;;;;;;;752883;185;628058;-68
2022/03/01 01:42:34;;;;;;;60.07;32.60;;;;;;;;;;757244;183;632377;-68
2022/03/01 01:45:00;;;;;;;64.03;33.43;;;;;;;;;;751613;183;624859;-68
2022/03/01 01:47:26;;;;;;;69.63;36.60;;;;;;;;;;755422;183;633615;-68
2022/03/01 01:49:52;;;;;;;69.97;34.67;;;;;;;;;;767345;183;645270;-69
2022/03/01 01:52:18;;;;;;;81.27;37.00;;;;;;;;;;755931;183;636264;-68
2022/03/01 01:54:44;;;;;;;61.10;33.10;;;;;;;;;;754767;184;621003;-68
2022/03/01 01:57:12;;;;;;;67.62;35.33;;;;;;;;;;760086;183;628154;-67
2022/03/01 01:59:38;;;;;;;75.17;36.13;;;;;;;;;;777037;179;613056;-68
2022/03/01 02:02:04;;;;;;;79.73;38.00;;;;;;;;;;753556;184;623614;-68
2022/03/01 02:04:29;;;;;;;76.13;37.00;;;;;;;;;;746975;185;617045;-67
2022/03/01 02:06:56;;;;;;;78.93;36.23;;;;;;;;;;753924;183;645324;-68
2022/03/01 02:09:21;;;;;;;77.67;36.73;;;;;;;;;;768857;183;629897;-68
2022/03/01 02:11:47;;;;;;;71.15;36.03;;;;;;;;;;764825;183;624140;-68
2022/03/01 02:14:13;;;;;;;75.63;35.67;;;;;;;;;;756187;184;618087;-68
2022/03/01 02:16:39;;;;;;;82.60;40.63;;;;;;;;;;751796;184;615244;-68
2022/03/01 02:19:04;;;;;;;81.53;39.17;;;;;;;;;;750919;184;643703;-68
2022/03/01 02:21:31;;;;;;;90.05;42.28;;;;;;;;;;752302;184;633198;-67
2022/03/01 02:23:57;;;;;;;82.77;39.00;;;;;;;;;;753630;184;623990;-69
2022/03/01 02:26:23;;;;;;;81.60;41.97;;;;;;;;;;751129;184;641307;-68
2022/03/01 02:28:48;;;;;;;82.53;39.47;;;;;;;;;;761667;184;630686;-68
2022/03/01 02:31:14;;;;;;;73.47;39.57;;;;;;;;;;755443;184;626221;-67
2022/03/01 02:33:40;;;;;;;70.67;39.53;;;;;;;;;;760162;184;631057;-68
2022/03/01 02:36:06;;;;;;;89.30;43.77;;;;;;;;;;764101;184;634663;-68
2022/03/01 02:38:32;;;;;;;84.87;43.00;;;;;;;;;;765644;184;625523;-68
2022/03/01 02:40:58;;;;;;;91.60;41.50;;;;;;;;;;754643;184;628300;-68
2022/03/01 02:43:23;;;;;;;83.10;38.20;;;;;;;;;;753672;184;635066;-68
2022/03/01 02:45:49;;;;;;;85.80;43.43;;;;;;;;;;766639;184;626577;-69
2022/03/01 02:48:15;;;;;;;83.93;41.80;;;;;;;;;;750655;185;625355;-68
2022/03/01 02:50:41;;;;;;;79.17;40.07;;;;;;;;;;754025;182;631575;-69
2022/03/01 02:53:07;;;;;;;75.40;40.40;;;;;;;;;;764110;183;638131;-67
2022/03/01 02:55:33;;;;;;;86.47;40.50;;;;;;;;;;759564;183;619051;-68
2022/03/01 02:57:59;;;;;;;97.23;38.67;;;;;;;;;;766602;183;624384;-68
2022/03/01 03:00:24;;;;;;;74.27;40.87;;;;;;;;;;763375;184;632089;-68
2022/03/01 03:02:50;;;;;;;78.40;40.43;;;;;;;;;;767829;180;634101;-68
2022/03/01 03:05:16;;;;;;;89.43;43.57;;;;;;;;;;758934;184;623985;-68
2022/03/01 03:07:42;;;;;;;77.17;44.10;;;;;;;;;;746135;184;754266;-68
2022/03/01 03:10:08;;;;;;;78.27;38.90;;;;;;;;;;756781;184;629856;-68
2022/03/01 03:12:34;;;;;;;93.47;45.07;;;;;;;;;;757690;184;625420;-67
2022/03/01 03:14:59;;;;;;;91.97;45.70;;;;;;;;;;755708;183;639311;-68
2022/03/01 03:17:26;;;;;;;90.60;45.08;;;;;;;;;;763520;183;625060;-68
2022/03/01 03:19:52;;;;;;;85.83;45.57;;;;;;;;;;742328;186;634620;-67
2022/03/01 03:22:17;;;;;;;95.93;49.57;;;;;;;;;;743260;187;627114;-67
2022/03/01 03:24:43;;;;;;;104.50;47.50;;;;;;;;;;748396;187;635074;-67
2022/03/01 03:27:09;;;;;;;83.93;43.20;;;;;;;;;;766913;184;621303;-67
2022/03/01 03:29:35;;;;;;;91.70;46.60;;;;;;;;;;748652;183;624304;-67
2022/03/01 03:32:01;;;;;;;93.60;48.03;;;;;;;;;;747209;183;691247;-68
2022/03/01 03:34:27;;;;;;;96.57;48.50;;;;;;;;;;755322;183;613492;-68
2022/03/01 03:36:52;;;;;;;85.07;45.00;;;;;;;;;;752966;184;632049;-68
2022/03/01 03:39:18;;;;;;;86.20;45.60;;;;;;;;;;759709;184;635346;-69
2022/03/01 03:41:44;;;;;;;90.77;45.40;;;;;;;;;;767876;184;627921;-69
2022/03/01 03:44:10;;;;;;;99.93;47.03;;;;;;;;;;756687;184;636067;-69
2022/03/01 03:46:36;;;;;;;98.50;47.17;;;;;;;;;;748059;184;629956;-68
2022/03/01 03:49:02;;;;;;;98.60;48.43;;;;;;;;;;749082;184;630564;-68
2022/03/01 03:51:28;;;;;;;91.17;48.90;;;;;;;;;;756246;184;631626;-68
2022/03/01 03:53:53;;;;;;;95.90;50.10;;;;;;;;;;745900;183;625126;-68
2022/03/01 03:56:19;;;;;;;95.50;48.20;;;;;;;;;;750667;186;663218;-68
2022/03/01 03:58:45;;;;;;;94.63;48.87;;;;;;;;;;756716;184;617278;-68
2022/03/01 04:01:11;;;;;;;108.73;53.17;;;;;;;;;;753247;183;633334;-68
2022/03/01 04:03:37;;;;;;;93.83;49.10;;;;;;;;;;754366;184;630801;-68
2022/03/01 04:06:02;;;;;;;94.07;47.80;;;;;;;;;;761291;183;627963;-68
2022/03/01 04:08:28;;;;;;;97.13;51.50;;;;;;;;;;760487;183;631795;-68
2022/03/01 04:10:55;;;;;;;95.90;50.60;;;;;;;;;;766094;184;620507;-68
2022/03/01 04:13:20;;;;;;;105.23;49.57;;;;;;;;;;767575;184;623065;-68
2022/03/01 04:15:46;;;;;;;107.73;49.50;;;;;;;;;;760755;184;620918;-68
2022/03/01 04:18:12;;;;;;;107.17;50.33;;;;;;;;;;753287;183;636898;-68
2022/03/01 04:20:38;;;;;;;104.10;50.20;;;;;;;;;;756970;183;632877;-70
2022/03/01 04:23:03;;;;;;;96.87;48.93;;;;;;;;;;759164;184;628199;-69
2022/03/01 04:25:29;;;;;;;80.60;42.63;;;;;;;;;;756850;184;620011;-69
2022/03/01 04:27:55;;;;;;;106.93;51.40;;;;;;;;;;751078;184;624401;-68
2022/03/01 04:30:21;;;;;;;93.63;50.83;;;;;;;;;;753868;184;616252;-68
2022/03/01 04:32:47;;;;;;;354.73;142.70;;;;;;;;;;755508;185;626081;-69
2022/03/01 04:35:13;;;;;;;234.50;104.50;;;;;;;;;;756957;183;640621;-69
2022/03/01 04:37:38;;;;;;;246.53;127.27;;;;;;;;;;763670;184;625357;-70
2022/03/01 04:40:05;;;;;;;114.43;59.53;;;;;;;;;;761956;184;642087;-70
2022/03/01 04:42:31;;;;;;;101.30;56.13;;;;;;;;;;763696;184;643562;-69
2022/03/01 04:44:57;;;;;;;96.30;56.97;;;;;;;;;;755880;184;640179;-70
2022/03/01 04:47:22;;;;;;;109.37;54.83;;;;;;;;;;753712;183;644544;-68
2022/03/01 04:49:48;;;;;;;85.97;48.37;;;;;;;;;;758154;183;616684;-68
2022/03/01 04:52:14;;;;;;;78.07;39.57;;;;;;;;;;757852;184;632571;-68
2022/03/01 04:54:40;;;;;;;99.43;47.73;;;;;;;;;;759111;184;637143;-68
2022/03/01 04:57:06;;;;;;;107.00;55.53;;;;;;;;;;755422;184;624547;-68
2022/03/01 04:59:32;;;;;;;756.17;305.07;;;;;;;;;;752841;184;634170;-68
2022/03/01 05:01:58;;;;;;;240.77;113.77;;;;;;;;;;760898;184;614008;-68
2022/03/01 05:04:23;;;;;;;159.47;74.73;;;;;;;;;;754648;184;632776;-68
2022/03/01 05:06:49;;;;;;;114.57;60.77;;;;;;;;;;755533;184;626289;-68
2022/03/01 05:09:15;;;;;;;120.20;57.83;;;;;;;;;;757026;184;643331;-67
2022/03/01 05:11:41;;;;;;;99.27;53.43;;;;;;;;;;755865;183;615027;-69
2022/03/01 05:14:07;;;;;;;108.40;52.00;;;;;;;;;;758718;183;639627;-69
2022/03/01 05:16:33;;;;;;;112.87;54.23;;;;;;;;;;755498;184;630968;-69
2022/03/01 05:18:59;;;;;;;105.23;51.20;;;;;;;;;;761911;184;637573;-69
2022/03/01 05:21:25;;;;;;;121.37;60.03;;;;;;;;;;755716;183;627610;-69
2022/03/01 05:23:51;;;;;;;109.17;52.60;;;;;;;;;;754237;183;710894;-69
2022/03/01 05:26:16;;;;;;;118.57;56.73;;;;;;;;;;758094;184;642041;-69
2022/03/01 05:28:42;;;;;;;90.20;50.07;;;;;;;;;;758627;184;661157;-69
2022/03/01 05:31:08;;;;;;;83.77;49.57;;;;;;;;;;748572;184;635073;-69
2022/03/01 05:33:34;;;;;;;100.00;45.37;;;;;;;;;;754365;183;620635;-69
2022/03/01 05:36:00;;;;;;;115.73;56.03;;;;;;;;;;765340;183;623081;-69
2022/03/01 05:38:26;;;;;;;101.47;56.17;;;;;;;;;;759604;184;633026;-69
2022/03/01 05:40:52;;;;;;;119.87;58.17;;;;;;;;;;752306;184;634167;-69
2022/03/01 05:43:17;;;;;;;111.10;56.97;;;;;;;;;;755865;184;645286;-69
2022/03/01 05:45:43;;;;;;;135.83;69.27;;;;;;;;;;755082;184;623488;-68
2022/03/01 05:48:09;;;;;;;89.30;49.80;;;;;;;;;;755709;184;632494;-68
2022/03/01 05:50:35;;;;;;;111.27;46.23;;;;;;;;;;760575;184;625427;-69
2022/03/01 05:53:01;;;;;;;99.37;46.10;;;;;;;;;;759060;183;708356;-67
2022/03/01 05:55:27;;;;;;;103.37;47.10;;;;;;;;;;759737;184;623030;-69
2022/03/01 05:57:52;;;;;;;81.63;43.17;;;;;;;;;;758509;184;625676;-69
2022/03/01 06:00:18;;;;;;;94.53;43.67;;;;;;;;;;755070;184;667027;-69
2022/03/01 06:02:45;;;;;;;97.27;44.80;;;;;;;;;;756068;184;643500;-66
2022/03/01 06:05:11;;;;;;;77.95;43.78;;;;;;;;;;756178;184;630349;-66
2022/03/01 06:07:36;;;;;;;82.47;43.03;;;;;;;;;;761201;182;648883;-66
2022/03/01 06:10:02;;;;;;;84.77;42.20;;;;;;;;;;754907;185;633802;-67
2022/03/01 06:12:28;;;;;;;86.33;45.40;;;;;;;;;;751980;183;618175;-66
2022/03/01 06:14:54;;;;;;;81.87;44.50;;;;;;;;;;767331;184;632506;-67
2022/03/01 06:17:20;;;;;;;84.43;42.43;;;;;;;;;;753491;184;626746;-68
2022/03/01 06:19:46;;;;;;;99.17;52.63;;;;;;;;;;751812;184;629250;-66
2022/03/01 06:22:11;;;;;;;81.73;49.80;;;;;;;;;;761423;184;619059;-66
2022/03/01 06:24:38;;;;;;;81.73;46.07;;;;;;;;;;757212;184;632719;-65
2022/03/01 06:27:05;;;;;;;87.50;42.13;;;;;;;;;;759183;184;635114;-64
2022/03/01 06:29:30;;;;;;;78.33;42.73;;;;;;;;;;772221;183;625384;-67
2022/03/01 06:31:56;;;;;;;94.00;45.37;;;;;;;;;;764394;183;628222;-67
2022/03/01 06:34:21;;;;;;;79.03;43.40;;;;;;;;;;753932;185;635443;-66
2022/03/01 06:36:47;;;;;;;89.70;42.70;;;;;;;;;;751943;184;629467;-65
2022/03/01 06:39:13;;;;;;;81.03;45.10;;;;;;;;;;756042;185;657397;-66
2022/03/01 06:41:39;;;;;;;80.33;37.37;;;;;;;;;;758812;184;643875;-66
2022/03/01 06:44:05;;;;;;;73.00;38.17;;;;;;;;;;759577;184;618259;-66
2022/03/01 06:46:31;;;;;;;83.20;37.23;;;;;;;;;;757863;183;627809;-65
2022/03/01 06:48:57;;;;;;;81.57;42.77;;;;;;;;;;759437;183;629473;-65
2022/03/01 06:51:23;;;;;;;89.40;41.63;;;;;;;;;;751798;187;627106;-65
2022/03/01 06:53:48;;;;;;;71.17;32.43;;;;;;;;;;751966;184;632296;-64
2022/03/01 06:56:14;;;;;;;84.90;38.70;;;;;;;;;;753779;184;632219;-64
2022/03/01 06:58:40;;;;;;;69.87;36.92;;;;;;;;;;749575;184;768915;-62
2022/03/01 07:01:06;;;;;;;64.87;35.37;;;;;;;;;;757254;184;622475;-62
2022/03/01 07:03:32;;;;;;;81.10;37.80;;;;;;;;;;766352;184;629263;-61
2022/03/01 07:05:58;;;;;;;64.77;35.40;;;;;;;;;;753316;184;637495;-60
2022/03/01 07:08:24;;;;;;;62.87;30.07;;;;;;;;;;753132;184;627138;-60
2022/03/01 07:10:49;;;;;;;55.93;34.07;;;;;;;;;;759479;184;616230;-60
2022/03/01 07:13:15;;;;;;;58.57;25.50;;;;;;;;;;745986;184;620100;-60
2022/03/01 07:15:41;;;;;;;74.03;36.78;;;;;;;;;;763147;184;630752;-61
2022/03/01 07:18:08;;;;;;;62.37;36.60;;;;;;;;;;765544;184;767321;-60
2022/03/01 07:20:34;;;;;;;67.37;34.90;;;;;;;;;;758221;184;638919;-60
2022/03/01 07:22:59;;;;;;;51.87;30.10;;;;;;;;;;756957;184;632865;-61
2022/03/01 07:25:25;;;;;;;91.90;40.10;;;;;;;;;;759488;184;619403;-60
2022/03/01 07:27:51;;;;;;;91.30;43.30;;;;;;;;;;754160;184;632836;-61
2022/03/01 07:30:18;;;;;;;62.40;33.10;;;;;;;;;;753131;183;640925;-60
2022/03/01 07:32:44;;;;;;;61.90;35.23;;;;;;;;;;755576;183;687379;-60
2022/03/01 07:35:10;;;;;;;58.53;32.60;;;;;;;;;;760361;182;639998;-60
2022/03/01 07:37:37;;;;;;;64.70;32.60;;;;;;;;;;762557;183;624091;-60
2022/03/01 07:40:02;;;;;;;55.90;30.40;;;;;;;;;;752587;183;763007;-60
2022/03/01 07:42:28;;;;;;;73.10;34.50;;;;;;;;;;768813;183;626067;-60
2022/03/01 07:44:54;;;;;;;70.20;36.00;;;;;;;;;;755784;184;635125;-61
2022/03/01 07:47:20;;;;;;;58.50;31.43;;;;;;;;;;755746;183;628944;-60
2022/03/01 07:49:47;;;;;;;71.50;42.20;;;;;;;;;;759916;184;674455;-61
2022/03/01 07:52:11;;;;;;;65.33;37.30;;;;;;;;;;756103;184;622444;-61
2022/03/01 07:54:37;;;;;;;49.97;28.87;;;;;;;;;;757570;184;627789;-61
2022/03/01 07:57:03;;;;;;;63.00;31.50;;;;;;;;;;754519;184;630864;-61
2022/03/01 07:59:29;;;;;;;72.60;37.10;;;;;;;;;;753276;184;640687;-61
2022/03/01 08:01:55;;;;;;;51.20;26.23;;;;;;;;;;758489;183;623621;-61
2022/03/01 08:04:21;;;;;;;71.10;39.63;;;;;;;;;;755360;184;630137;-60
2022/03/01 08:06:47;;;;;;;62.50;34.93;;;;;;;;;;759249;183;629285;-63
2022/03/01 08:09:12;;;;;;;57.27;28.80;;;;;;;;;;755145;184;623646;-60
2022/03/01 08:11:38;;;;;;;65.37;38.83;;;;;;;;;;756238;184;616011;-61
2022/03/01 08:14:04;;;;;;;71.83;34.77;;;;;;;;;;758581;184;617129;-60
2022/03/01 08:16:30;;;;;;;71.00;36.40;;;;;;;;;;753730;184;618070;-60
2022/03/01 08:18:56;;;;;;;69.20;39.20;;;;;;;;;;756672;184;617617;-59
2022/03/01 08:21:22;;;;;;;43.63;27.02;;;;;;;;;;753224;184;1583891;-59
2022/03/01 08:23:48;;;;;;;61.50;34.20;;;;;;;;;;767823;180;617395;-60
2022/03/01 08:26:13;;;;;;;63.93;33.03;;;;;;;;;;753325;184;618937;-59
2022/03/01 08:28:40;;;;;;;57.73;34.77;;;;;;;;;;753659;184;626145;-60
2022/03/01 08:31:05;;;;;;;48.47;26.40;;;;;;;;;;760584;184;623796;-60
2022/03/01 08:33:32;;;;;;;69.83;35.87;;;;;;;;;;751676;184;633926;-60
2022/03/01 08:35:57;;;;;;;49.53;24.10;;;;;;;;;;757764;184;616023;-60
2022/03/01 08:38:23;;;;;;;74.63;38.13;;;;;;;;;;761442;184;622074;-59
2022/03/01 08:40:48;;;;;;;72.77;36.37;;;;;;;;;;756387;184;624754;-60
2022/03/01 08:43:14;;;;;;;59.63;30.90;;;;;;;;;;756711;184;639036;-60
2022/03/01 08:45:40;;;;;;;61.33;36.70;;;;;;;;;;758195;184;629009;-60
2022/03/01 08:48:06;;;;;;;53.40;27.80;;;;;;;;;;758565;183;626231;-59
2022/03/01 08:50:32;;;;;;;37.03;21.30;;;;;;;;;;756982;183;635218;-59
2022/03/01 08:52:58;;;;;;;50.43;29.67;;;;;;;;;;756382;183;637164;-59
2022/03/01 08:55:24;;;;;;;51.80;24.87;;;;;;;;;;758121;183;627025;-58
2022/03/01 08:57:49;;;;;;;62.80;29.70;;;;;;;;;;759229;184;710692;-59
2022/03/01 09:00:16;;;;;;;45.20;24.52;;;;;;;;;;756871;184;628639;-59
2022/03/01 09:02:41;;;;;;;37.93;21.60;;;;;;;;;;763324;183;627257;-58
2022/03/01 09:05:08;;;;;;;50.00;20.63;;;;;;;;;;756259;184;632944;-59
2022/03/01 09:07:33;;;;;;;28.20;19.50;;;;;;;;;;756487;184;638229;-58
2022/03/01 09:09:59;;;;;;;32.93;21.10;;;;;;;;;;762117;183;622992;-58
2022/03/01 09:12:25;;;;;;;28.33;15.23;;;;;;;;;;754164;184;617944;-59
2022/03/01 09:14:51;;;;;;;31.10;16.50;;;;;;;;;;754172;184;650806;-58
2022/03/01 09:17:17;;;;;;;39.43;21.27;;;;;;;;;;763083;183;629109;-59
2022/03/01 09:19:43;;;;;;;32.17;20.40;;;;;;;;;;754165;185;624896;-59
2022/03/01 09:22:09;;;;;;;39.00;20.53;;;;;;;;;;760558;183;628407;-59
2022/03/01 09:24:34;;;;;;;14.47;10.10;;;;;;;;;;756673;184;620013;-59
2022/03/01 09:27:02;;;;;;;36.00;18.73;;;;;;;;;;758127;184;633552;-59
2022/03/01 09:29:26;;;;;;;27.57;15.50;;;;;;;;;;756204;184;633572;-60
2022/03/01 09:31:52;;;;;;;24.83;13.17;;;;;;;;;;750759;184;633006;-60
2022/03/01 09:34:18;;;;;;;25.57;13.63;;;;;;;;;;763353;184;626621;-58
2022/03/01 09:36:44;;;;;;;31.60;18.10;;;;;;;;;;757050;184;625574;-59
2022/03/01 09:39:09;;;;;;;33.27;14.90;;;;;;;;;;756906;184;628464;-59
2022/03/01 09:41:37;;;;;;;21.03;11.50;;;;;;;;;;759502;184;636990;-59
2022/03/01 09:44:01;;;;;;;29.07;15.37;;;;;;;;;;760350;184;630732;-59
2022/03/01 09:46:27;;;;;;;15.87;10.00;;;;;;;;;;756601;184;640274;-60
2022/03/01 09:48:53;;;;;;;37.57;17.07;;;;;;;;;;757542;184;645044;-58
2022/03/01 09:51:19;;;;;;;52.70;20.23;;;;;;;;;;756615;181;615613;-59
2022/03/01 09:53:47;;;;;;;30.90;12.83;;;;;;;;;;752728;183;632078;-59
2022/03/01 09:56:11;;;;;;;23.60;12.30;;;;;;;;;;754459;184;641136;-59
2022/03/01 09:58:38;;;;;;;26.17;15.60;;;;;;;;;;758993;184;637779;-60
2022/03/01 10:01:02;;;;;;;18.87;10.00;;;;;;;;;;762163;183;634339;-59
2022/03/01 10:03:29;;;;;;;23.53;13.10;;;;;;;;;;752309;184;617990;-59
2022/03/01 10:05:55;;;;;;;34.00;15.70;;;;;;;;;;761189;184;615308;-59
2022/03/01 10:08:22;;;;;;;31.63;17.23;;;;;;;;;;754500;184;613540;-59
2022/03/01 10:10:49;;;;;;;15.37;9.27;;;;;;;;;;755716;184;626774;-59
2022/03/01 10:13:15;;;;;;;29.50;13.10;;;;;;;;;;756633;184;625098;-58
2022/03/01 10:15:41;;;;;;;36.63;18.87;;;;;;;;;;760703;184;614889;-59
2022/03/01 10:18:09;;;;;;;22.93;10.70;;;;;;;;;;755261;183;624170;-59
2022/03/01 10:20:35;;;;;;;32.77;16.27;;;;;;;;;;753252;183;801276;-59
2022/03/01 10:23:01;;;;;;;41.63;16.40;;;;;;;;;;761989;184;617345;-59
2022/03/01 10:25:27;;;;;;;24.13;14.67;;;;;;;;;;755662;184;629183;-59
2022/03/01 10:27:53;;;;;;;33.00;13.80;;;;;;;;;;758522;184;623646;-60
2022/03/01 10:30:22;;;;;;;34.40;18.87;;;;;;;;;;760361;184;638728;-59
2022/03/01 10:32:48;;;;;;;30.37;17.90;;;;;;;;;;755956;183;633208;-59
2022/03/01 10:35:14;;;;;;;45.63;19.77;;;;;;;;;;757125;184;619093;-59
2022/03/01 10:37:40;;;;;;;22.77;12.00;;;;;;;;;;756200;184;619366;-60
2022/03/01 10:40:09;;;;;;;24.07;11.10;;;;;;;;;;760682;184;614429;-60
2022/03/01 10:42:35;;;;;;;19.93;10.60;;;;;;;;;;754967;184;632377;-59
2022/03/01 10:45:01;;;;;;;23.23;12.00;;;;;;;;;;756770;184;631912;-59
2022/03/01 10:47:28;;;;;;;25.70;14.23;;;;;;;;;;763197;184;628291;-59
2022/03/01 10:49:59;;;;;;;24.93;11.33;;;;;;;;;;753248;184;791711;-59
2022/03/01 10:52:25;;;;;;;15.47;7.73;;;;;;;;;;753017;184;636690;-59
2022/03/01 10:54:52;;;;;;;33.67;16.40;;;;;;;;;;757555;184;637019;-59
2022/03/01 10:57:21;;;;;;;20.40;11.27;;;;;;;;;;757575;184;628677;-59
2022/03/01 10:59:46;;;;;;;27.63;12.33;;;;;;;;;;754055;184;624035;-59
2022/03/01 11:02:12;;;;;;;29.47;13.67;;;;;;;;;;758214;182;629092;-59
2022/03/01 11:04:38;;;;;;;19.70;9.83;;;;;;;;;;752077;185;628600;-59
2022/03/01 11:07:04;;;;;;;12.53;8.83;;;;;;;;;;758945;184;615165;-60
2022/03/01 11:09:29;;;;;;;16.40;9.97;;;;;;;;;;753511;184;632605;-59
2022/03/01 11:11:55;;;;;;;7.07;5.47;;;;;;;;;;758456;183;664405;-58
2022/03/01 11:14:23;;;;;;;12.17;7.20;;;;;;;;;;763139;183;626350;-59
2022/03/01 11:16:52;;;;;;;23.03;10.47;;;;;;;;;;756640;184;617173;-59
2022/03/01 11:19:18;;;;;;;14.00;9.57;;;;;;;;;;755014;183;625941;-59
2022/03/01 11:21:44;;;;;;;15.93;7.30;;;;;;;;;;757815;184;637018;-58
2022/03/01 11:24:10;;;;;;;12.40;7.10;;;;;;;;;;756241;183;625291;-59
2022/03/01 11:26:37;;;;;;;20.10;7.63;;;;;;;;;;759021;183;648864;-59
2022/03/01 11:29:02;;;;;;;17.70;8.30;;;;;;;;;;755283;184;622829;-58
2022/03/01 11:31:28;;;;;;;13.03;6.07;;;;;;;;;;759311;184;633988;-60
2022/03/01 11:33:58;;;;;;;9.50;4.87;;;;;;;;;;753229;183;633234;-59
2022/03/01 11:36:25;;;;;;;11.40;4.80;;;;;;;;;;754003;184;627844;-58
2022/03/01 11:38:50;;;;;;;7.57;5.07;;;;;;;;;;758679;184;636731;-60
2022/03/01 11:41:20;;;;;;;13.50;7.60;;;;;;;;;;756905;184;619066;-58
2022/03/01 11:43:42;;;;;;;14.87;7.13;;;;;;;;;;758111;184;634938;-58
2022/03/01 11:46:15;;;;;;;5.63;3.67;;;;;;;;;;754136;184;640108;-58
2022/03/01 11:48:43;;;;;;;15.10;6.23;;;;;;;;;;762012;181;625217;-59
2022/03/01 11:51:09;;;;;;;11.47;6.40;;;;;;;;;;757713;184;629547;-59
2022/03/01 11:53:35;;;;;;;6.07;3.73;;;;;;;;;;756517;184;644098;-59
2022/03/01 11:56:02;;;;;;;14.53;8.07;;;;;;;;;;760388;183;621866;-59
2022/03/01 11:58:27;;;;;;;24.77;10.40;;;;;;;;;;755894;184;641332;-59
2022/03/01 12:00:53;;;;;;;15.73;6.97;;;;;;;;;;757537;183;622353;-59
2022/03/01 12:03:19;;;;;;;9.80;4.73;;;;;;;;;;757521;183;636242;-59
2022/03/01 12:05:46;;;;;;;5.70;4.40;;;;;;;;;;761496;183;681891;-58
2022/03/01 12:08:12;;;;;;;16.40;7.30;;;;;;;;;;758508;184;619295;-59
2022/03/01 12:10:38;;;;;;;15.70;5.67;;;;;;;;;;755979;184;629337;-59
2022/03/01 12:13:05;;;;;;;18.20;5.30;;;;;;;;;;758879;184;627584;-59
2022/03/01 12:15:31;;;;;;;7.70;3.93;;;;;;;;;;756584;184;642765;-59
2022/03/01 12:17:58;;;;;;;4.37;3.00;;;;;;;;;;756160;184;617208;-58
2022/03/01 12:20:23;;;;;;;13.00;7.13;;;;;;;;;;757675;184;626226;-59
2022/03/01 12:22:49;;;;;;;17.40;6.97;;;;;;;;;;754815;182;628569;-59
2022/03/01 12:25:16;;;;;;;14.33;6.73;;;;;;;;;;762636;183;622024;-58
2022/03/01 12:27:41;;;;;;;10.57;6.40;;;;;;;;;;753330;183;639489;-59
2022/03/01 12:30:07;;;;;;;10.57;5.87;;;;;;;;;;761213;183;617079;-59
2022/03/01 12:32:34;;;;;;;8.00;5.73;;;;;;;;;;761698;184;626395;-59
2022/03/01 12:34:58;;;;;;;6.57;4.10;;;;;;;;;;755592;183;630220;-58
2022/03/01 12:37:24;;;;;;;9.47;5.17;;;;;;;;;;761446;183;619184;-59
2022/03/01 12:39:50;;;;;;;9.93;5.30;;;;;;;;;;758158;183;625873;-59
2022/03/01 12:42:16;;;;;;;8.10;3.87;;;;;;;;;;756943;184;637240;-59
2022/03/01 12:44:42;;;;;;;7.77;4.80;;;;;;;;;;758707;184;621780;-58
2022/03/01 12:47:08;;;;;;;17.10;5.70;;;;;;;;;;758861;183;639380;-58
2022/03/01 12:49:33;;;;;;;11.00;4.60;;;;;;;;;;761277;183;641633;-58
2022/03/01 12:51:59;;;;;;;8.50;5.53;;;;;;;;;;755642;183;619272;-59
2022/03/01 12:54:26;;;;;;;12.97;5.93;;;;;;;;;;761394;184;622213;-58
2022/03/01 12:56:51;;;;;;;10.27;3.80;;;;;;;;;;756160;184;625009;-59
2022/03/01 12:59:17;;;;;;;10.53;5.87;;;;;;;;;;754911;184;627313;-59
2022/03/01 13:01:46;;;;;;;11.50;5.27;;;;;;;;;;758915;184;629768;-59
2022/03/01 13:04:12;;;;;;;10.90;5.43;;;;;;;;;;755033;184;628415;-59
2022/03/01 13:06:38;;;;;;;14.03;6.10;;;;;;;;;;755765;183;634879;-59
2022/03/01 13:09:04;;;;;;;16.83;6.10;;;;;;;;;;757959;184;646829;-58
2022/03/01 13:11:30;;;;;;;7.90;3.70;;;;;;;;;;759361;184;624919;-59
2022/03/01 13:13:56;;;;;;;8.30;4.83;;;;;;;;;;754228;184;629131;-58
2022/03/01 13:16:22;;;;;;;10.17;5.87;;;;;;;;;;751400;185;737170;-59
2022/03/01 13:18:50;;;;;;;8.70;3.50;;;;;;;;;;758859;184;634092;-59
2022/03/01 13:21:16;;;;;;;7.27;3.47;;;;;;;;;;759533;184;687718;-59
2022/03/01 13:23:41;;;;;;;14.53;7.90;;;;;;;;;;753691;184;630394;-59
2022/03/01 13:26:08;;;;;;;8.73;5.00;;;;;;;;;;767626;184;627821;-59
2022/03/01 13:28:34;;;;;;;7.03;3.20;;;;;;;;;;755926;184;627104;-58
2022/03/01 13:31:00;;;;;;;9.87;4.73;;;;;;;;;;756040;184;752001;-58
2022/03/01 13:33:26;;;;;;;6.73;4.27;;;;;;;;;;761871;183;639112;-59
2022/03/01 13:35:51;;;;;;;16.00;6.47;;;;;;;;;;761125;183;615058;-60
2022/03/01 13:38:17;;;;;;;4.93;2.70;;;;;;;;;;755399;183;635966;-59
2022/03/01 13:40:43;;;;;;;11.43;4.83;;;;;;;;;;755448;183;616076;-59
2022/03/01 13:43:10;;;;;;;11.47;5.70;;;;;;;;;;754290;184;615949;-59
2022/03/01 13:45:36;;;;;;;9.47;5.87;;;;;;;;;;745519;183;1638578;-59
2022/03/01 13:48:07;;;;;;;13.20;3.33;;;;;;;;;;754855;184;627121;-59
2022/03/01 13:50:33;;;;;;;14.70;5.43;;;;;;;;;;759877;184;613702;-59
2022/03/01 13:53:01;;;;;;;6.93;4.10;;;;;;;;;;755671;184;628329;-59
2022/03/01 13:55:25;;;;;;;6.67;4.77;;;;;;;;;;755824;184;627902;-59
2022/03/01 13:57:51;;;;;;;7.97;3.77;;;;;;;;;;755176;184;624958;-59
2022/03/01 14:00:17;;;;;;;6.87;3.40;;;;;;;;;;761619;183;626051;-60
2022/03/01 14:02:48;;;;;;;9.13;5.50;;;;;;;;;;756754;183;623213;-59